Forside
METAR-TAF:

METAR-TAF

Lufthavne :

Clinton Municipal Airport

Clinton, Iowa, USA

Breddekreds: 41-50N, længdekreds: 090-20W, højde: 216 m

Aktuelle vejr

Denne rapport blev lavet for 14 minutter siden, kl. 18:56 UTC
Vind 24 kt fra vestnordvest med vindstød på up til 28 kt
Temperatur 4°C
Fugtighed 93%
Tryk 1000 hPa
Sigt: 8.0 km
Overskyet i en højde af 600 ft
let regn, dis

METAR: KCWI 091856Z AUTO 29024G28KT 5SM -RA BR OVC006 04/03 A2952 RMK AO2 PK WND 29030/1841 CIG 004V009 SLP004 P0000 T00390028

Tid: 13:10 (19:10 UTC)


TAF: fraværende

Vejrobservationer og prognoser fra mere end 4000 lufthavne (METAR og TAF).

De gule og røde prikker repræsenterer de meteorologiske stationer.

Flyt musen over at se navnet på stationen.

Så klik over at se vejr observationer og prognoser.

At skifte det kort: Klik på de grønne knapper med et sort kors for at zoome ind; på den grønne knap med en bindestreg for at zoome ud; eller på de grønne pile for tilstødende kort.


METAR-TAF: